sensor_id;sensor_type;location;lat;lon;timestamp;P1;durP1;ratioP1;P2;durP2;ratioP2
71125;SDS011;58785;55.566;38.058;2022-08-03T00:01:35;19.13;;;10.30;;
71125;SDS011;58785;55.566;38.058;2022-08-03T00:04:02;20.10;;;10.40;;
71125;SDS011;58785;55.566;38.058;2022-08-03T00:06:28;19.60;;;10.48;;
71125;SDS011;58785;55.566;38.058;2022-08-03T00:08:54;19.27;;;10.20;;
71125;SDS011;58785;55.566;38.058;2022-08-03T00:11:19;19.80;;;10.53;;
71125;SDS011;58785;55.566;38.058;2022-08-03T00:13:45;19.83;;;10.70;;
71125;SDS011;58785;55.566;38.058;2022-08-03T00:16:10;23.67;;;10.73;;
71125;SDS011;58785;55.566;38.058;2022-08-03T00:18:37;19.02;;;10.40;;
71125;SDS011;58785;55.566;38.058;2022-08-03T00:21:03;21.35;;;10.65;;
71125;SDS011;58785;55.566;38.058;2022-08-03T00:23:29;19.48;;;9.90;;
71125;SDS011;58785;55.566;38.058;2022-08-03T00:25:55;18.10;;;10.50;;
71125;SDS011;58785;55.566;38.058;2022-08-03T00:28:21;19.25;;;11.07;;
71125;SDS011;58785;55.566;38.058;2022-08-03T00:30:47;21.92;;;10.05;;
71125;SDS011;58785;55.566;38.058;2022-08-03T00:33:13;18.00;;;9.23;;
71125;SDS011;58785;55.566;38.058;2022-08-03T00:35:38;19.40;;;10.00;;
71125;SDS011;58785;55.566;38.058;2022-08-03T00:38:04;21.43;;;9.97;;
71125;SDS011;58785;55.566;38.058;2022-08-03T00:40:30;18.67;;;9.90;;
71125;SDS011;58785;55.566;38.058;2022-08-03T00:43:00;17.25;;;9.98;;
71125;SDS011;58785;55.566;38.058;2022-08-03T00:45:28;20.43;;;10.57;;
71125;SDS011;58785;55.566;38.058;2022-08-03T00:47:55;19.55;;;10.43;;
71125;SDS011;58785;55.566;38.058;2022-08-03T00:50:22;19.52;;;10.50;;
71125;SDS011;58785;55.566;38.058;2022-08-03T00:52:50;20.58;;;10.38;;
71125;SDS011;58785;55.566;38.058;2022-08-03T00:55:17;20.08;;;10.50;;
71125;SDS011;58785;55.566;38.058;2022-08-03T00:57:43;18.50;;;10.30;;
71125;SDS011;58785;55.566;38.058;2022-08-03T01:00:09;19.20;;;10.27;;
71125;SDS011;58785;55.566;38.058;2022-08-03T01:02:37;20.05;;;10.20;;
71125;SDS011;58785;55.566;38.058;2022-08-03T01:05:04;22.65;;;10.45;;
71125;SDS011;58785;55.566;38.058;2022-08-03T01:07:40;22.67;;;11.63;;
71125;SDS011;58785;55.566;38.058;2022-08-03T01:15:45;20.70;;;10.30;;
71125;SDS011;58785;55.566;38.058;2022-08-03T01:21:25;19.43;;;10.73;;
71125;SDS011;58785;55.566;38.058;2022-08-03T01:27:04;18.92;;;10.10;;
71125;SDS011;58785;55.566;38.058;2022-08-03T01:30:03;17.90;;;9.55;;
71125;SDS011;58785;55.566;38.058;2022-08-03T01:35:13;18.93;;;9.37;;
71125;SDS011;58785;55.566;38.058;2022-08-03T01:37:52;16.67;;;9.10;;
71125;SDS011;58785;55.566;38.058;2022-08-03T01:40:22;16.27;;;8.90;;
71125;SDS011;58785;55.566;38.058;2022-08-03T01:42:51;20.75;;;9.68;;
71125;SDS011;58785;55.566;38.058;2022-08-03T01:45:18;16.42;;;8.98;;
71125;SDS011;58785;55.566;38.058;2022-08-03T01:47:46;15.57;;;8.97;;
71125;SDS011;58785;55.566;38.058;2022-08-03T01:50:14;19.92;;;9.50;;
71125;SDS011;58785;55.566;38.058;2022-08-03T01:52:43;17.60;;;9.38;;
71125;SDS011;58785;55.566;38.058;2022-08-03T01:55:09;16.40;;;9.60;;
71125;SDS011;58785;55.566;38.058;2022-08-03T01:57:37;16.75;;;8.88;;
71125;SDS011;58785;55.566;38.058;2022-08-03T02:00:05;18.83;;;9.33;;
71125;SDS011;58785;55.566;38.058;2022-08-03T02:02:33;14.98;;;9.00;;
71125;SDS011;58785;55.566;38.058;2022-08-03T02:05:03;19.05;;;9.40;;
71125;SDS011;58785;55.566;38.058;2022-08-03T02:07:31;16.08;;;9.15;;
71125;SDS011;58785;55.566;38.058;2022-08-03T02:09:58;15.80;;;9.27;;
71125;SDS011;58785;55.566;38.058;2022-08-03T02:12:26;17.50;;;9.10;;
71125;SDS011;58785;55.566;38.058;2022-08-03T02:15:14;15.57;;;9.05;;
71125;SDS011;58785;55.566;38.058;2022-08-03T02:17:40;16.00;;;9.35;;
71125;SDS011;58785;55.566;38.058;2022-08-03T02:20:08;16.77;;;9.23;;
71125;SDS011;58785;55.566;38.058;2022-08-03T02:22:38;14.15;;;9.32;;
71125;SDS011;58785;55.566;38.058;2022-08-03T02:25:06;13.50;;;8.73;;
71125;SDS011;58785;55.566;38.058;2022-08-03T02:27:37;15.88;;;9.15;;
71125;SDS011;58785;55.566;38.058;2022-08-03T02:30:08;15.85;;;8.25;;
71125;SDS011;58785;55.566;38.058;2022-08-03T02:32:38;19.00;;;9.90;;
71125;SDS011;58785;55.566;38.058;2022-08-03T02:35:05;15.45;;;9.27;;
71125;SDS011;58785;55.566;38.058;2022-08-03T02:37:39;15.17;;;9.53;;
71125;SDS011;58785;55.566;38.058;2022-08-03T02:40:06;15.05;;;8.80;;
71125;SDS011;58785;55.566;38.058;2022-08-03T02:42:34;14.38;;;8.82;;
71125;SDS011;58785;55.566;38.058;2022-08-03T02:45:04;14.10;;;8.80;;
71125;SDS011;58785;55.566;38.058;2022-08-03T02:47:31;16.55;;;9.77;;
71125;SDS011;58785;55.566;38.058;2022-08-03T02:50:00;13.33;;;8.67;;
71125;SDS011;58785;55.566;38.058;2022-08-03T02:52:29;15.18;;;8.80;;
71125;SDS011;58785;55.566;38.058;2022-08-03T02:54:58;14.50;;;9.68;;
71125;SDS011;58785;55.566;38.058;2022-08-03T02:57:29;15.43;;;11.38;;
71125;SDS011;58785;55.566;38.058;2022-08-03T02:59:57;15.35;;;10.13;;
71125;SDS011;58785;55.566;38.058;2022-08-03T03:02:24;18.20;;;10.37;;
71125;SDS011;58785;55.566;38.058;2022-08-03T03:04:51;16.08;;;10.73;;
71125;SDS011;58785;55.566;38.058;2022-08-03T03:07:18;13.20;;;9.65;;
71125;SDS011;58785;55.566;38.058;2022-08-03T03:09:44;15.30;;;10.52;;
71125;SDS011;58785;55.566;38.058;2022-08-03T03:12:11;15.35;;;9.93;;
71125;SDS011;58785;55.566;38.058;2022-08-03T03:14:37;16.47;;;10.10;;
71125;SDS011;58785;55.566;38.058;2022-08-03T03:17:08;13.43;;;9.43;;
71125;SDS011;58785;55.566;38.058;2022-08-03T03:19:35;14.90;;;9.35;;
71125;SDS011;58785;55.566;38.058;2022-08-03T03:22:03;16.33;;;10.07;;
71125;SDS011;58785;55.566;38.058;2022-08-03T03:24:31;14.32;;;10.25;;
71125;SDS011;58785;55.566;38.058;2022-08-03T03:27:00;16.37;;;9.60;;
71125;SDS011;58785;55.566;38.058;2022-08-03T03:29:27;14.77;;;9.93;;
71125;SDS011;58785;55.566;38.058;2022-08-03T03:31:53;15.30;;;9.48;;
71125;SDS011;58785;55.566;38.058;2022-08-03T03:34:21;13.63;;;9.82;;
71125;SDS011;58785;55.566;38.058;2022-08-03T03:36:49;13.50;;;9.43;;
71125;SDS011;58785;55.566;38.058;2022-08-03T03:39:14;15.57;;;10.32;;
71125;SDS011;58785;55.566;38.058;2022-08-03T03:41:40;15.60;;;10.80;;
71125;SDS011;58785;55.566;38.058;2022-08-03T03:44:06;13.67;;;10.47;;
71125;SDS011;58785;55.566;38.058;2022-08-03T03:46:31;13.27;;;9.93;;
71125;SDS011;58785;55.566;38.058;2022-08-03T03:48:57;13.80;;;8.97;;
71125;SDS011;58785;55.566;38.058;2022-08-03T03:51:23;14.32;;;8.65;;
71125;SDS011;58785;55.566;38.058;2022-08-03T03:53:59;14.33;;;9.40;;
71125;SDS011;58785;55.566;38.058;2022-08-03T03:56:26;14.00;;;10.10;;
71125;SDS011;58785;55.566;38.058;2022-08-03T03:58:53;18.40;;;10.50;;
71125;SDS011;58785;55.566;38.058;2022-08-03T04:01:20;14.15;;;9.30;;
71125;SDS011;58785;55.566;38.058;2022-08-03T04:03:48;14.40;;;9.65;;
71125;SDS011;58785;55.566;38.058;2022-08-03T04:06:14;15.80;;;10.70;;
71125;SDS011;58785;55.566;38.058;2022-08-03T04:08:59;16.88;;;10.18;;
71125;SDS011;58785;55.566;38.058;2022-08-03T04:11:48;14.18;;;9.68;;
71125;SDS011;58785;55.566;38.058;2022-08-03T04:14:19;16.40;;;10.20;;
71125;SDS011;58785;55.566;38.058;2022-08-03T04:17:03;12.40;;;9.13;;
71125;SDS011;58785;55.566;38.058;2022-08-03T04:19:35;14.37;;;8.93;;
71125;SDS011;58785;55.566;38.058;2022-08-03T04:22:08;15.88;;;9.40;;
71125;SDS011;58785;55.566;38.058;2022-08-03T04:24:56;15.20;;;9.45;;
71125;SDS011;58785;55.566;38.058;2022-08-03T04:27:31;13.07;;;8.57;;
71125;SDS011;58785;55.566;38.058;2022-08-03T04:30:01;12.32;;;8.52;;
71125;SDS011;58785;55.566;38.058;2022-08-03T04:32:29;12.93;;;8.00;;
71125;SDS011;58785;55.566;38.058;2022-08-03T04:34:56;11.93;;;7.67;;
71125;SDS011;58785;55.566;38.058;2022-08-03T04:37:43;12.05;;;8.23;;
71125;SDS011;58785;55.566;38.058;2022-08-03T04:40:17;12.38;;;7.95;;
71125;SDS011;58785;55.566;38.058;2022-08-03T04:42:46;11.75;;;8.02;;
71125;SDS011;58785;55.566;38.058;2022-08-03T04:45:14;13.15;;;7.85;;
71125;SDS011;58785;55.566;38.058;2022-08-03T04:47:42;12.65;;;7.50;;
71125;SDS011;58785;55.566;38.058;2022-08-03T04:50:09;11.77;;;7.43;;
71125;SDS011;58785;55.566;38.058;2022-08-03T04:52:35;12.80;;;7.53;;
71125;SDS011;58785;55.566;38.058;2022-08-03T04:55:01;10.95;;;7.97;;
71125;SDS011;58785;55.566;38.058;2022-08-03T04:57:29;12.32;;;7.90;;
71125;SDS011;58785;55.566;38.058;2022-08-03T04:59:54;11.33;;;8.30;;
71125;SDS011;58785;55.566;38.058;2022-08-03T05:02:20;13.35;;;7.57;;
71125;SDS011;58785;55.566;38.058;2022-08-03T05:04:47;14.27;;;8.68;;
71125;SDS011;58785;55.566;38.058;2022-08-03T05:07:13;12.52;;;8.20;;
71125;SDS011;58785;55.566;38.058;2022-08-03T05:09:41;11.80;;;7.25;;
71125;SDS011;58785;55.566;38.058;2022-08-03T05:12:07;12.43;;;7.00;;
71125;SDS011;58785;55.566;38.058;2022-08-03T05:14:33;12.23;;;7.55;;
71125;SDS011;58785;55.566;38.058;2022-08-03T05:17:02;13.93;;;7.55;;
71125;SDS011;58785;55.566;38.058;2022-08-03T05:19:28;19.05;;;8.10;;
71125;SDS011;58785;55.566;38.058;2022-08-03T05:21:53;12.30;;;6.97;;
71125;SDS011;58785;55.566;38.058;2022-08-03T05:24:19;12.57;;;6.97;;
71125;SDS011;58785;55.566;38.058;2022-08-03T05:26:45;12.50;;;7.40;;
71125;SDS011;58785;55.566;38.058;2022-08-03T05:29:10;10.93;;;7.50;;
71125;SDS011;58785;55.566;38.058;2022-08-03T05:31:36;11.23;;;7.05;;
71125;SDS011;58785;55.566;38.058;2022-08-03T05:34:01;12.47;;;7.70;;
71125;SDS011;58785;55.566;38.058;2022-08-03T05:36:27;13.98;;;7.00;;
71125;SDS011;58785;55.566;38.058;2022-08-03T05:38:52;11.03;;;7.80;;
71125;SDS011;58785;55.566;38.058;2022-08-03T05:41:18;12.68;;;7.57;;
71125;SDS011;58785;55.566;38.058;2022-08-03T05:43:44;10.00;;;7.30;;
71125;SDS011;58785;55.566;38.058;2022-08-03T05:46:10;11.77;;;7.40;;
71125;SDS011;58785;55.566;38.058;2022-08-03T05:48:36;11.82;;;7.40;;
71125;SDS011;58785;55.566;38.058;2022-08-03T05:51:02;14.73;;;7.87;;
71125;SDS011;58785;55.566;38.058;2022-08-03T05:53:31;15.18;;;8.73;;
71125;SDS011;58785;55.566;38.058;2022-08-03T05:55:58;14.85;;;7.72;;
71125;SDS011;58785;55.566;38.058;2022-08-03T05:58:23;14.48;;;7.57;;
71125;SDS011;58785;55.566;38.058;2022-08-03T06:00:49;12.83;;;7.07;;
71125;SDS011;58785;55.566;38.058;2022-08-03T06:03:14;12.25;;;7.25;;
71125;SDS011;58785;55.566;38.058;2022-08-03T06:05:40;14.90;;;7.07;;
71125;SDS011;58785;55.566;38.058;2022-08-03T06:08:06;15.18;;;7.65;;
71125;SDS011;58785;55.566;38.058;2022-08-03T06:10:31;11.93;;;7.10;;
71125;SDS011;58785;55.566;38.058;2022-08-03T06:12:57;13.73;;;7.63;;
71125;SDS011;58785;55.566;38.058;2022-08-03T06:15:23;12.40;;;6.67;;
71125;SDS011;58785;55.566;38.058;2022-08-03T06:17:49;13.00;;;7.57;;
71125;SDS011;58785;55.566;38.058;2022-08-03T06:20:17;13.38;;;7.55;;
71125;SDS011;58785;55.566;38.058;2022-08-03T06:22:44;11.47;;;7.70;;
71125;SDS011;58785;55.566;38.058;2022-08-03T06:25:10;13.77;;;6.90;;
71125;SDS011;58785;55.566;38.058;2022-08-03T06:27:36;13.25;;;7.35;;
71125;SDS011;58785;55.566;38.058;2022-08-03T06:30:04;12.43;;;8.30;;
71125;SDS011;58785;55.566;38.058;2022-08-03T06:32:32;16.05;;;8.02;;
71125;SDS011;58785;55.566;38.058;2022-08-03T06:34:59;11.80;;;8.27;;
71125;SDS011;58785;55.566;38.058;2022-08-03T06:37:24;14.20;;;8.73;;
71125;SDS011;58785;55.566;38.058;2022-08-03T06:39:51;14.15;;;8.50;;
71125;SDS011;58785;55.566;38.058;2022-08-03T06:42:18;19.15;;;9.25;;
71125;SDS011;58785;55.566;38.058;2022-08-03T06:44:43;14.25;;;8.82;;
71125;SDS011;58785;55.566;38.058;2022-08-03T06:47:09;15.07;;;8.40;;
71125;SDS011;58785;55.566;38.058;2022-08-03T06:49:35;11.82;;;8.02;;
71125;SDS011;58785;55.566;38.058;2022-08-03T06:52:01;11.57;;;7.65;;
71125;SDS011;58785;55.566;38.058;2022-08-03T06:54:26;12.03;;;7.60;;
71125;SDS011;58785;55.566;38.058;2022-08-03T06:56:52;14.35;;;7.85;;
71125;SDS011;58785;55.566;38.058;2022-08-03T06:59:18;10.10;;;6.60;;
71125;SDS011;58785;55.566;38.058;2022-08-03T07:01:43;15.57;;;6.25;;
71125;SDS011;58785;55.566;38.058;2022-08-03T07:04:09;15.50;;;7.53;;
71125;SDS011;58785;55.566;38.058;2022-08-03T07:06:42;12.27;;;7.05;;
71125;SDS011;58785;55.566;38.058;2022-08-03T07:09:07;9.93;;;6.72;;
71125;SDS011;58785;55.566;38.058;2022-08-03T07:11:33;9.60;;;5.87;;
71125;SDS011;58785;55.566;38.058;2022-08-03T07:13:58;8.77;;;4.85;;
71125;SDS011;58785;55.566;38.058;2022-08-03T07:16:24;8.47;;;4.90;;
71125;SDS011;58785;55.566;38.058;2022-08-03T07:18:50;8.43;;;5.88;;
71125;SDS011;58785;55.566;38.058;2022-08-03T07:21:15;12.60;;;6.90;;
71125;SDS011;58785;55.566;38.058;2022-08-03T07:23:41;8.98;;;5.70;;
71125;SDS011;58785;55.566;38.058;2022-08-03T07:26:12;15.30;;;5.17;;
71125;SDS011;58785;55.566;38.058;2022-08-03T07:28:37;10.48;;;4.82;;
71125;SDS011;58785;55.566;38.058;2022-08-03T07:31:03;9.00;;;5.63;;
71125;SDS011;58785;55.566;38.058;2022-08-03T07:33:28;11.97;;;5.60;;
71125;SDS011;58785;55.566;38.058;2022-08-03T07:35:54;9.50;;;5.43;;
71125;SDS011;58785;55.566;38.058;2022-08-03T07:38:20;9.63;;;4.97;;
71125;SDS011;58785;55.566;38.058;2022-08-03T07:40:45;11.43;;;5.22;;
71125;SDS011;58785;55.566;38.058;2022-08-03T07:43:11;11.10;;;5.20;;
71125;SDS011;58785;55.566;38.058;2022-08-03T07:45:39;10.68;;;5.97;;
71125;SDS011;58785;55.566;38.058;2022-08-03T07:48:04;7.30;;;5.40;;
71125;SDS011;58785;55.566;38.058;2022-08-03T07:50:30;6.83;;;4.83;;
71125;SDS011;58785;55.566;38.058;2022-08-03T07:52:56;7.15;;;4.57;;
71125;SDS011;58785;55.566;38.058;2022-08-03T07:55:22;12.17;;;5.20;;
71125;SDS011;58785;55.566;38.058;2022-08-03T07:58:03;9.53;;;4.87;;
71125;SDS011;58785;55.566;38.058;2022-08-03T08:00:30;6.82;;;4.45;;
71125;SDS011;58785;55.566;38.058;2022-08-03T08:02:56;6.78;;;4.50;;
71125;SDS011;58785;55.566;38.058;2022-08-03T08:05:22;7.65;;;4.80;;
71125;SDS011;58785;55.566;38.058;2022-08-03T08:07:47;8.00;;;4.67;;
71125;SDS011;58785;55.566;38.058;2022-08-03T08:10:13;7.20;;;4.90;;
71125;SDS011;58785;55.566;38.058;2022-08-03T08:12:38;8.93;;;3.80;;
71125;SDS011;58785;55.566;38.058;2022-08-03T08:15:05;10.40;;;4.80;;
71125;SDS011;58785;55.566;38.058;2022-08-03T08:17:39;6.70;;;4.70;;
71125;SDS011;58785;55.566;38.058;2022-08-03T08:20:06;7.20;;;4.73;;
71125;SDS011;58785;55.566;38.058;2022-08-03T08:22:32;7.38;;;4.95;;
71125;SDS011;58785;55.566;38.058;2022-08-03T08:24:58;6.50;;;5.05;;
71125;SDS011;58785;55.566;38.058;2022-08-03T08:27:23;7.73;;;4.37;;
71125;SDS011;58785;55.566;38.058;2022-08-03T08:29:49;8.77;;;4.50;;
71125;SDS011;58785;55.566;38.058;2022-08-03T08:32:15;11.13;;;4.83;;
71125;SDS011;58785;55.566;38.058;2022-08-03T08:34:40;8.70;;;4.37;;
71125;SDS011;58785;55.566;38.058;2022-08-03T08:37:06;8.48;;;4.75;;
71125;SDS011;58785;55.566;38.058;2022-08-03T08:39:32;7.95;;;4.82;;
71125;SDS011;58785;55.566;38.058;2022-08-03T08:41:57;8.70;;;4.30;;
71125;SDS011;58785;55.566;38.058;2022-08-03T08:44:23;8.63;;;4.20;;
71125;SDS011;58785;55.566;38.058;2022-08-03T08:46:48;8.68;;;3.95;;
71125;SDS011;58785;55.566;38.058;2022-08-03T08:49:17;9.32;;;4.10;;
71125;SDS011;58785;55.566;38.058;2022-08-03T08:51:45;7.20;;;4.28;;
71125;SDS011;58785;55.566;38.058;2022-08-03T08:54:13;7.97;;;4.30;;
71125;SDS011;58785;55.566;38.058;2022-08-03T08:56:42;8.10;;;4.57;;
71125;SDS011;58785;55.566;38.058;2022-08-03T08:59:09;8.30;;;4.60;;
71125;SDS011;58785;55.566;38.058;2022-08-03T09:01:34;7.35;;;4.45;;
71125;SDS011;58785;55.566;38.058;2022-08-03T09:04:00;8.77;;;4.50;;
71125;SDS011;58785;55.566;38.058;2022-08-03T09:06:30;6.97;;;3.83;;
71125;SDS011;58785;55.566;38.058;2022-08-03T09:08:56;8.50;;;4.43;;
71125;SDS011;58785;55.566;38.058;2022-08-03T09:11:22;7.25;;;3.92;;
71125;SDS011;58785;55.566;38.058;2022-08-03T09:13:48;8.00;;;3.80;;
71125;SDS011;58785;55.566;38.058;2022-08-03T09:16:16;7.65;;;3.67;;
71125;SDS011;58785;55.566;38.058;2022-08-03T09:18:45;6.85;;;4.35;;
71125;SDS011;58785;55.566;38.058;2022-08-03T09:23:54;7.67;;;4.37;;
71125;SDS011;58785;55.566;38.058;2022-08-03T09:26:22;7.47;;;4.25;;
71125;SDS011;58785;55.566;38.058;2022-08-03T09:29:06;7.28;;;4.15;;
71125;SDS011;58785;55.566;38.058;2022-08-03T09:34:02;9.38;;;4.25;;
71125;SDS011;58785;55.566;38.058;2022-08-03T09:36:33;7.18;;;3.97;;
71125;SDS011;58785;55.566;38.058;2022-08-03T09:39:14;9.07;;;4.53;;
71125;SDS011;58785;55.566;38.058;2022-08-03T09:41:42;8.25;;;4.35;;
71125;SDS011;58785;55.566;38.058;2022-08-03T09:44:11;7.25;;;4.00;;
71125;SDS011;58785;55.566;38.058;2022-08-03T09:46:47;8.87;;;4.40;;
71125;SDS011;58785;55.566;38.058;2022-08-03T09:49:18;9.37;;;4.90;;
71125;SDS011;58785;55.566;38.058;2022-08-03T09:51:44;8.35;;;5.03;;
71125;SDS011;58785;55.566;38.058;2022-08-03T09:54:10;8.70;;;4.65;;
71125;SDS011;58785;55.566;38.058;2022-08-03T09:59:12;7.82;;;4.30;;
71125;SDS011;58785;55.566;38.058;2022-08-03T10:01:46;9.02;;;4.53;;
71125;SDS011;58785;55.566;38.058;2022-08-03T10:04:13;6.95;;;4.38;;
71125;SDS011;58785;55.566;38.058;2022-08-03T10:06:44;8.57;;;4.60;;
71125;SDS011;58785;55.566;38.058;2022-08-03T10:09:25;7.68;;;4.95;;
71125;SDS011;58785;55.566;38.058;2022-08-03T10:11:51;7.73;;;4.57;;
71125;SDS011;58785;55.566;38.058;2022-08-03T10:14:17;7.75;;;4.75;;
71125;SDS011;58785;55.566;38.058;2022-08-03T10:16:46;11.90;;;4.90;;
71125;SDS011;58785;55.566;38.058;2022-08-03T10:19:14;7.63;;;4.75;;
71125;SDS011;58785;55.566;38.058;2022-08-03T10:21:50;8.43;;;4.53;;
71125;SDS011;58785;55.566;38.058;2022-08-03T10:24:23;9.50;;;5.13;;
71125;SDS011;58785;55.566;38.058;2022-08-03T10:27:00;8.60;;;4.47;;
71125;SDS011;58785;55.566;38.058;2022-08-03T10:29:28;7.78;;;4.72;;
71125;SDS011;58785;55.566;38.058;2022-08-03T10:32:03;10.37;;;4.03;;
71125;SDS011;58785;55.566;38.058;2022-08-03T10:34:33;7.23;;;4.40;;
71125;SDS011;58785;55.566;38.058;2022-08-03T10:37:03;7.45;;;5.10;;
71125;SDS011;58785;55.566;38.058;2022-08-03T10:39:34;9.90;;;5.40;;
71125;SDS011;58785;55.566;38.058;2022-08-03T10:42:21;14.20;;;5.00;;
71125;SDS011;58785;55.566;38.058;2022-08-03T10:44:49;8.13;;;4.88;;
71125;SDS011;58785;55.566;38.058;2022-08-03T10:47:29;8.30;;;4.70;;
71125;SDS011;58785;55.566;38.058;2022-08-03T10:49:55;8.50;;;4.60;;
71125;SDS011;58785;55.566;38.058;2022-08-03T10:52:22;9.07;;;4.47;;
71125;SDS011;58785;55.566;38.058;2022-08-03T10:54:48;10.87;;;4.73;;
71125;SDS011;58785;55.566;38.058;2022-08-03T11:00:11;8.25;;;4.60;;
71125;SDS011;58785;55.566;38.058;2022-08-03T11:03:03;8.73;;;4.25;;
71125;SDS011;58785;55.566;38.058;2022-08-03T11:05:36;9.07;;;4.88;;
71125;SDS011;58785;55.566;38.058;2022-08-03T11:10:42;7.85;;;5.03;;
71125;SDS011;58785;55.566;38.058;2022-08-03T11:13:07;7.00;;;4.13;;
71125;SDS011;58785;55.566;38.058;2022-08-03T11:15:35;7.73;;;3.90;;
71125;SDS011;58785;55.566;38.058;2022-08-03T11:18:11;8.27;;;4.90;;
71125;SDS011;58785;55.566;38.058;2022-08-03T11:20:44;7.45;;;4.47;;
71125;SDS011;58785;55.566;38.058;2022-08-03T11:23:12;7.45;;;4.70;;
71125;SDS011;58785;55.566;38.058;2022-08-03T11:28:36;9.98;;;4.80;;
71125;SDS011;58785;55.566;38.058;2022-08-03T11:34:05;9.40;;;4.80;;
71125;SDS011;58785;55.566;38.058;2022-08-03T11:44:49;8.57;;;5.50;;
71125;SDS011;58785;55.566;38.058;2022-08-03T11:47:15;9.25;;;4.75;;
71125;SDS011;58785;55.566;38.058;2022-08-03T11:49:43;8.27;;;5.32;;
71125;SDS011;58785;55.566;38.058;2022-08-03T11:52:13;12.13;;;4.82;;
71125;SDS011;58785;55.566;38.058;2022-08-03T11:54:41;8.75;;;4.18;;
71125;SDS011;58785;55.566;38.058;2022-08-03T11:57:07;7.90;;;4.75;;
71125;SDS011;58785;55.566;38.058;2022-08-03T11:59:33;9.43;;;5.00;;
71125;SDS011;58785;55.566;38.058;2022-08-03T12:02:09;8.52;;;4.57;;
71125;SDS011;58785;55.566;38.058;2022-08-03T12:04:48;9.35;;;4.78;;
71125;SDS011;58785;55.566;38.058;2022-08-03T12:07:18;8.32;;;4.50;;
71125;SDS011;58785;55.566;38.058;2022-08-03T12:12:37;8.57;;;4.90;;
71125;SDS011;58785;55.566;38.058;2022-08-03T12:15:04;9.25;;;4.82;;
71125;SDS011;58785;55.566;38.058;2022-08-03T12:17:33;6.87;;;4.17;;
71125;SDS011;58785;55.566;38.058;2022-08-03T12:20:04;8.30;;;4.50;;
71125;SDS011;58785;55.566;38.058;2022-08-03T12:22:39;9.20;;;4.72;;
71125;SDS011;58785;55.566;38.058;2022-08-03T12:25:05;9.50;;;5.10;;
71125;SDS011;58785;55.566;38.058;2022-08-03T12:27:34;10.18;;;4.82;;
71125;SDS011;58785;55.566;38.058;2022-08-03T12:30:30;7.75;;;4.25;;
71125;SDS011;58785;55.566;38.058;2022-08-03T12:32:56;11.27;;;4.88;;
71125;SDS011;58785;55.566;38.058;2022-08-03T12:35:29;9.20;;;4.70;;
71125;SDS011;58785;55.566;38.058;2022-08-03T12:37:54;8.00;;;4.73;;
71125;SDS011;58785;55.566;38.058;2022-08-03T12:40:24;10.30;;;5.00;;
71125;SDS011;58785;55.566;38.058;2022-08-03T12:42:53;10.37;;;5.03;;
71125;SDS011;58785;55.566;38.058;2022-08-03T12:45:22;9.02;;;4.80;;
71125;SDS011;58785;55.566;38.058;2022-08-03T12:47:56;9.18;;;4.68;;
71125;SDS011;58785;55.566;38.058;2022-08-03T12:52:55;9.10;;;4.30;;
71125;SDS011;58785;55.566;38.058;2022-08-03T12:55:22;11.17;;;5.07;;
71125;SDS011;58785;55.566;38.058;2022-08-03T12:57:51;15.20;;;4.22;;
71125;SDS011;58785;55.566;38.058;2022-08-03T13:00:17;7.53;;;3.95;;
71125;SDS011;58785;55.566;38.058;2022-08-03T13:02:43;7.95;;;5.00;;
71125;SDS011;58785;55.566;38.058;2022-08-03T13:05:10;10.40;;;4.70;;
71125;SDS011;58785;55.566;38.058;2022-08-03T13:07:42;11.20;;;4.75;;
71125;SDS011;58785;55.566;38.058;2022-08-03T13:10:10;7.72;;;4.47;;
71125;SDS011;58785;55.566;38.058;2022-08-03T13:12:46;7.72;;;4.82;;
71125;SDS011;58785;55.566;38.058;2022-08-03T13:15:14;9.60;;;5.28;;
71125;SDS011;58785;55.566;38.058;2022-08-03T13:17:40;10.23;;;4.30;;
71125;SDS011;58785;55.566;38.058;2022-08-03T13:20:06;8.70;;;4.00;;
71125;SDS011;58785;55.566;38.058;2022-08-03T13:22:32;10.48;;;4.85;;
71125;SDS011;58785;55.566;38.058;2022-08-03T13:24:58;7.40;;;4.20;;
71125;SDS011;58785;55.566;38.058;2022-08-03T13:27:26;8.27;;;4.57;;
71125;SDS011;58785;55.566;38.058;2022-08-03T13:29:52;8.18;;;4.18;;
71125;SDS011;58785;55.566;38.058;2022-08-03T13:32:19;7.70;;;4.63;;
71125;SDS011;58785;55.566;38.058;2022-08-03T13:34:45;7.60;;;4.70;;
71125;SDS011;58785;55.566;38.058;2022-08-03T13:37:11;8.37;;;4.50;;
71125;SDS011;58785;55.566;38.058;2022-08-03T13:39:37;8.67;;;4.80;;
71125;SDS011;58785;55.566;38.058;2022-08-03T13:42:05;12.52;;;4.85;;
71125;SDS011;58785;55.566;38.058;2022-08-03T13:44:31;6.53;;;4.15;;
71125;SDS011;58785;55.566;38.058;2022-08-03T13:46:57;11.55;;;5.03;;
71125;SDS011;58785;55.566;38.058;2022-08-03T13:49:25;7.65;;;4.60;;
71125;SDS011;58785;55.566;38.058;2022-08-03T13:51:51;9.95;;;4.47;;
71125;SDS011;58785;55.566;38.058;2022-08-03T13:54:17;12.57;;;4.50;;
71125;SDS011;58785;55.566;38.058;2022-08-03T13:56:43;9.10;;;4.60;;
71125;SDS011;58785;55.566;38.058;2022-08-03T13:59:17;8.52;;;4.45;;
71125;SDS011;58785;55.566;38.058;2022-08-03T14:01:44;9.00;;;4.13;;
71125;SDS011;58785;55.566;38.058;2022-08-03T14:04:10;7.47;;;4.10;;
71125;SDS011;58785;55.566;38.058;2022-08-03T14:06:36;7.77;;;3.90;;
71125;SDS011;58785;55.566;38.058;2022-08-03T14:09:01;8.93;;;4.18;;
71125;SDS011;58785;55.566;38.058;2022-08-03T14:11:27;8.80;;;4.77;;
71125;SDS011;58785;55.566;38.058;2022-08-03T14:13:53;8.93;;;4.47;;
71125;SDS011;58785;55.566;38.058;2022-08-03T14:16:18;9.57;;;4.70;;
71125;SDS011;58785;55.566;38.058;2022-08-03T14:18:44;8.35;;;4.60;;
71125;SDS011;58785;55.566;38.058;2022-08-03T14:21:10;10.45;;;4.20;;
71125;SDS011;58785;55.566;38.058;2022-08-03T14:23:36;8.37;;;4.43;;
71125;SDS011;58785;55.566;38.058;2022-08-03T14:26:03;7.97;;;4.40;;
71125;SDS011;58785;55.566;38.058;2022-08-03T14:28:32;7.60;;;4.32;;
71125;SDS011;58785;55.566;38.058;2022-08-03T14:30:57;10.05;;;5.20;;
71125;SDS011;58785;55.566;38.058;2022-08-03T14:33:23;10.90;;;4.50;;
71125;SDS011;58785;55.566;38.058;2022-08-03T14:35:49;8.05;;;4.03;;
71125;SDS011;58785;55.566;38.058;2022-08-03T14:38:16;8.15;;;4.10;;
71125;SDS011;58785;55.566;38.058;2022-08-03T14:40:42;10.00;;;4.05;;
71125;SDS011;58785;55.566;38.058;2022-08-03T14:43:08;7.63;;;4.37;;
71125;SDS011;58785;55.566;38.058;2022-08-03T14:45:34;11.77;;;4.45;;
71125;SDS011;58785;55.566;38.058;2022-08-03T14:47:59;11.37;;;4.63;;
71125;SDS011;58785;55.566;38.058;2022-08-03T14:50:26;9.30;;;3.90;;
71125;SDS011;58785;55.566;38.058;2022-08-03T14:52:55;7.07;;;3.63;;
71125;SDS011;58785;55.566;38.058;2022-08-03T14:55:20;7.82;;;4.80;;
71125;SDS011;58785;55.566;38.058;2022-08-03T14:57:46;7.95;;;4.38;;
71125;SDS011;58785;55.566;38.058;2022-08-03T15:00:12;8.73;;;4.07;;
71125;SDS011;58785;55.566;38.058;2022-08-03T15:02:38;8.35;;;4.60;;
71125;SDS011;58785;55.566;38.058;2022-08-03T15:05:04;7.40;;;4.20;;
71125;SDS011;58785;55.566;38.058;2022-08-03T15:07:30;7.93;;;4.40;;
71125;SDS011;58785;55.566;38.058;2022-08-03T15:09:55;8.25;;;4.32;;
71125;SDS011;58785;55.566;38.058;2022-08-03T15:12:21;7.90;;;4.63;;
71125;SDS011;58785;55.566;38.058;2022-08-03T15:14:46;9.30;;;4.17;;
71125;SDS011;58785;55.566;38.058;2022-08-03T15:17:12;8.75;;;4.60;;
71125;SDS011;58785;55.566;38.058;2022-08-03T15:19:37;10.33;;;5.30;;